createdAt,value
2023-05-12T00:00:52.289Z,98094.28
2023-05-12T00:01:55.463Z,98093.44
2023-05-12T00:02:58.244Z,98102.94
2023-05-12T00:04:01.809Z,98092.66
2023-05-12T00:05:04.992Z,98105.84
2023-05-12T00:06:08.285Z,98092.25
2023-05-12T00:07:11.025Z,98100.09
2023-05-12T00:08:13.918Z,98087.53
2023-05-12T00:09:16.705Z,98093.00
2023-05-12T00:10:19.781Z,98088.78
2023-05-12T00:11:22.837Z,98083.91
2023-05-12T00:12:25.582Z,98091.84
2023-05-12T00:13:29.222Z,98092.12
2023-05-12T00:14:31.921Z,98091.84
2023-05-12T00:15:34.756Z,98088.97
2023-05-12T00:16:37.498Z,98082.16
2023-05-12T00:17:40.521Z,98084.31
2023-05-12T00:18:43.359Z,98091.41
2023-05-12T00:19:47.054Z,98090.69
2023-05-12T00:20:50.289Z,98088.09
2023-05-12T00:21:53.109Z,98087.06
2023-05-12T00:22:55.973Z,98087.78
2023-05-12T00:23:58.765Z,98085.50
2023-05-12T00:25:01.452Z,98080.00
2023-05-12T00:26:04.118Z,98086.22
2023-05-12T00:27:07.651Z,98079.72
2023-05-12T00:28:10.352Z,98084.62
2023-05-12T00:29:13.101Z,98088.97
2023-05-12T00:30:16.055Z,98082.47
2023-05-12T00:31:18.815Z,98082.75
2023-05-12T00:32:21.621Z,98078.41
2023-05-12T00:33:24.382Z,98086.19
2023-05-12T00:34:29.951Z,98086.22
2023-05-12T00:35:32.703Z,98079.59
2023-05-12T00:36:35.483Z,98082.75
2023-05-12T00:37:38.243Z,98078.22
2023-05-12T00:38:41.543Z,98085.34
2023-05-12T00:39:44.213Z,98073.31
2023-05-12T00:40:46.931Z,98080.13
2023-05-12T00:41:56.983Z,98081.13
2023-05-12T00:42:59.787Z,98074.50
2023-05-12T00:44:02.563Z,98074.22
2023-05-12T00:45:06.048Z,98072.19
2023-05-12T00:46:09.329Z,98071.19
2023-05-12T00:47:12.623Z,98075.66
2023-05-12T00:48:15.696Z,98075.53
2023-05-12T00:49:19.525Z,98083.59
2023-05-12T00:50:22.569Z,98077.97
2023-05-12T00:51:27.705Z,98086.50
2023-05-12T00:52:30.538Z,98071.31
2023-05-12T00:53:45.431Z,98069.84
2023-05-12T00:54:51.221Z,98072.47
2023-05-12T00:55:55.732Z,98072.75
2023-05-12T00:56:58.484Z,98064.97
2023-05-12T00:58:01.139Z,98072.47
2023-05-12T00:59:03.922Z,98067.13
2023-05-12T01:00:07.644Z,98069.72
2023-05-12T01:01:10.663Z,98069.88
2023-05-12T01:02:13.577Z,98077.25
2023-05-12T01:03:17.754Z,98072.91
2023-05-12T01:04:20.680Z,98071.72
2023-05-12T01:05:23.558Z,98076.38
2023-05-12T01:06:37.330Z,98073.63
2023-05-12T01:07:40.600Z,98081.16
2023-05-12T01:08:44.227Z,98076.09
2023-05-12T01:09:47.100Z,98067.13
2023-05-12T01:10:49.767Z,98075.53
2023-05-12T01:11:52.523Z,98073.94
2023-05-12T01:12:55.184Z,98078.53
2023-05-12T01:13:58.214Z,98079.59
2023-05-12T01:15:01.303Z,98076.09
2023-05-12T01:16:05.161Z,98072.63
2023-05-12T01:17:15.974Z,98069.00
2023-05-12T01:18:21.946Z,98075.34
2023-05-12T01:19:43.121Z,98074.22
2023-05-12T01:20:47.800Z,98080.72
2023-05-12T01:21:50.992Z,98075.94
2023-05-12T01:22:55.472Z,98075.06
2023-05-12T01:24:06.654Z,98074.81
2023-05-12T01:25:14.922Z,98079.84
2023-05-12T01:26:17.996Z,98070.88
2023-05-12T01:27:22.481Z,98077.81
2023-05-12T01:28:25.202Z,98078.53
2023-05-12T01:29:28.855Z,98075.94
2023-05-12T01:30:32.442Z,98073.91
2023-05-12T01:31:35.748Z,98077.25
2023-05-12T01:32:40.633Z,98072.03
2023-05-12T01:33:43.771Z,98078.53
2023-05-12T01:34:46.904Z,98078.41
2023-05-12T01:35:49.604Z,98069.75
2023-05-12T01:36:52.298Z,98072.34
2023-05-12T01:37:55.040Z,98084.03
2023-05-12T01:38:57.848Z,98081.16
2023-05-12T01:40:00.525Z,98082.88
2023-05-12T01:41:03.466Z,98075.25
2023-05-12T01:42:06.470Z,98085.06
2023-05-12T01:43:09.200Z,98076.09
2023-05-12T01:44:11.857Z,98080.00
2023-05-12T01:45:14.624Z,98074.94
2023-05-12T01:46:17.329Z,98077.56
2023-05-12T01:47:21.968Z,98071.03
2023-05-12T01:48:24.642Z,98076.06
2023-05-12T01:49:27.408Z,98076.66
2023-05-12T01:50:30.138Z,98084.00
2023-05-12T01:51:32.816Z,98078.81
2023-05-12T01:52:35.601Z,98089.69
2023-05-12T01:53:38.402Z,98077.38
2023-05-12T01:54:41.116Z,98080.41
2023-05-12T01:55:43.853Z,98083.59
2023-05-12T01:56:46.524Z,98085.16
2023-05-12T01:57:49.328Z,98093.84
2023-05-12T01:58:52.172Z,98084.72
2023-05-12T01:59:54.908Z,98092.53
2023-05-12T02:00:57.802Z,98091.66
2023-05-12T02:02:00.556Z,98094.69
2023-05-12T02:03:03.497Z,98092.66
2023-05-12T02:04:09.004Z,98097.59
2023-05-12T02:05:11.951Z,98091.69
2023-05-12T02:06:15.157Z,98096.13
2023-05-12T02:07:17.872Z,98096.00
2023-05-12T02:08:20.679Z,98092.09
2023-05-12T02:09:23.427Z,98096.13
2023-05-12T02:10:26.118Z,98096.59
2023-05-12T02:11:29.059Z,98092.06
2023-05-12T02:12:31.852Z,98095.25
2023-05-12T02:13:34.950Z,98097.13
2023-05-12T02:14:37.688Z,98089.34
2023-05-12T02:15:40.443Z,98098.88
2023-05-12T02:16:43.298Z,98090.94
2023-05-12T02:17:46.347Z,98091.22
2023-05-12T02:18:49.071Z,98090.06
2023-05-12T02:19:52.337Z,98093.38
2023-05-12T02:20:55.243Z,98092.41
2023-05-12T02:21:58.037Z,98090.22
2023-05-12T02:23:02.365Z,98091.41
2023-05-12T02:24:05.198Z,98096.00
2023-05-12T02:25:08.331Z,98096.00
2023-05-12T02:26:11.054Z,98099.94
2023-05-12T02:27:13.935Z,98104.69
2023-05-12T02:28:16.660Z,98106.97
2023-05-12T02:29:19.957Z,98117.38
2023-05-12T02:30:22.800Z,98106.28
2023-05-12T02:31:25.856Z,98099.19
2023-05-12T02:32:28.861Z,98096.31
2023-05-12T02:33:31.677Z,98103.94
2023-05-12T02:34:34.480Z,98101.19
2023-05-12T02:35:37.176Z,98105.38
2023-05-12T02:36:39.909Z,98102.50
2023-05-12T02:37:42.619Z,98109.16
2023-05-12T02:38:45.669Z,98105.41
2023-05-12T02:39:48.307Z,98106.69
2023-05-12T02:40:51.125Z,98109.44
2023-05-12T02:41:53.807Z,98097.75
2023-05-12T02:42:56.821Z,98097.19
2023-05-12T02:43:59.544Z,98100.78
2023-05-12T02:45:03.123Z,98100.78
2023-05-12T02:46:06.316Z,98097.00
2023-05-12T02:47:09.070Z,98104.38
2023-05-12T02:48:12.239Z,98102.06
2023-05-12T02:49:14.868Z,98100.06
2023-05-12T02:50:17.790Z,98098.16
2023-05-12T02:51:20.533Z,98098.91
2023-05-12T02:52:23.156Z,98105.44
2023-05-12T02:53:27.490Z,98087.06
2023-05-12T02:54:30.152Z,98091.12
2023-05-12T02:55:32.927Z,98108.59
2023-05-12T02:56:36.441Z,98101.06
2023-05-12T02:57:39.282Z,98095.28
2023-05-12T02:58:42.274Z,98099.78
2023-05-12T02:59:44.964Z,98104.84
2023-05-12T03:00:51.973Z,98103.53
2023-05-12T03:01:59.907Z,98098.88
2023-05-12T03:03:02.700Z,98102.69
2023-05-12T03:04:05.567Z,98107.28
2023-05-12T03:05:09.483Z,98112.06
2023-05-12T03:06:12.330Z,98113.66
2023-05-12T03:07:15.401Z,98118.09
2023-05-12T03:08:18.199Z,98107.72
2023-05-12T03:09:21.136Z,98108.72
2023-05-12T03:10:24.068Z,98117.84
2023-05-12T03:11:26.976Z,98107.41
2023-05-12T03:12:30.132Z,98102.81
2023-05-12T03:13:33.660Z,98112.50
2023-05-12T03:14:36.532Z,98108.28
2023-05-12T03:15:39.237Z,98106.28
2023-05-12T03:16:42.016Z,98105.69
2023-05-12T03:17:44.872Z,98104.53
2023-05-12T03:18:47.880Z,98099.34
2023-05-12T03:19:50.620Z,98105.13
2023-05-12T03:20:53.452Z,98099.22
2023-05-12T03:21:56.605Z,98098.94
2023-05-12T03:22:59.389Z,98100.38
2023-05-12T03:24:02.216Z,98098.62
2023-05-12T03:25:05.587Z,98099.62
2023-05-12T03:26:08.345Z,98104.84
2023-05-12T03:27:11.084Z,98104.13
2023-05-12T03:28:13.768Z,98102.69
2023-05-12T03:29:16.489Z,98100.06
2023-05-12T03:30:19.243Z,98108.44
2023-05-12T03:31:22.170Z,98105.69
2023-05-12T03:32:25.071Z,98103.94
2023-05-12T03:33:27.989Z,98108.03
2023-05-12T03:34:31.750Z,98103.09
2023-05-12T03:35:34.508Z,98108.75
2023-05-12T03:36:37.658Z,98099.78
2023-05-12T03:37:40.467Z,98108.03
2023-05-12T03:38:43.194Z,98109.31
2023-05-12T03:39:46.051Z,98107.75
2023-05-12T03:40:52.845Z,98112.06
2023-05-12T03:41:55.754Z,98107.03
2023-05-12T03:42:58.397Z,98114.53
2023-05-12T03:44:01.346Z,98107.00
2023-05-12T03:45:05.530Z,98107.59
2023-05-12T03:46:08.412Z,98109.19
2023-05-12T03:47:11.237Z,98108.72
2023-05-12T03:48:14.096Z,98112.34
2023-05-12T03:49:16.770Z,98111.66
2023-05-12T03:50:19.743Z,98115.41
2023-05-12T03:51:22.578Z,98108.47
2023-05-12T03:52:25.355Z,98121.31
2023-05-12T03:53:28.042Z,98115.53
2023-05-12T03:54:30.984Z,98118.44
2023-05-12T03:55:34.120Z,98119.16
2023-05-12T03:56:37.518Z,98111.22
2023-05-12T03:57:40.277Z,98119.16
2023-05-12T03:58:43.617Z,98114.22
2023-05-12T03:59:46.702Z,98113.25
2023-05-12T04:00:50.392Z,98116.97
2023-05-12T04:01:53.759Z,98111.94
2023-05-12T04:02:56.514Z,98115.81
2023-05-12T04:03:59.330Z,98121.03
2023-05-12T04:05:02.217Z,98116.25
2023-05-12T04:06:05.307Z,98116.53
2023-05-12T04:07:08.120Z,98121.31
2023-05-12T04:08:11.007Z,98129.97
2023-05-12T04:09:13.742Z,98125.50
2023-05-12T04:10:16.645Z,98120.59
2023-05-12T04:11:19.277Z,98126.94
2023-05-12T04:12:22.057Z,98122.88
2023-05-12T04:13:26.133Z,98129.25
2023-05-12T04:14:41.829Z,98124.34
2023-05-12T04:15:45.755Z,98131.00
2023-05-12T04:16:48.636Z,98131.41
2023-05-12T04:17:51.362Z,98131.72
2023-05-12T04:18:54.303Z,98126.19
2023-05-12T04:19:57.003Z,98128.66
2023-05-12T04:20:59.691Z,98125.91
2023-05-12T04:22:02.781Z,98127.81
2023-05-12T04:23:05.471Z,98127.53
2023-05-12T04:24:08.404Z,98130.41
2023-05-12T04:25:11.146Z,98132.13
2023-05-12T04:26:13.830Z,98132.13
2023-05-12T04:27:16.568Z,98135.44
2023-05-12T04:28:19.196Z,98132.41
2023-05-12T04:29:21.905Z,98131.69
2023-05-12T04:30:24.517Z,98139.34
2023-05-12T04:31:27.268Z,98141.50
2023-05-12T04:32:29.992Z,98133.13
2023-05-12T04:33:32.825Z,98133.25
2023-05-12T04:34:36.199Z,98134.56
2023-05-12T04:35:38.983Z,98137.59
2023-05-12T04:36:41.821Z,98132.41
2023-05-12T04:37:44.407Z,98136.28
2023-05-12T04:38:47.330Z,98133.13
2023-05-12T04:39:50.048Z,98136.78
2023-05-12T04:40:52.734Z,98130.09
2023-05-12T04:41:55.534Z,98131.97
2023-05-12T04:42:58.191Z,98131.81
2023-05-12T04:44:00.969Z,98135.88
2023-05-12T04:45:03.977Z,98138.59
2023-05-12T04:46:06.876Z,98131.97
2023-05-12T04:47:09.590Z,98135.28
2023-05-12T04:48:12.272Z,98135.75
2023-05-12T04:49:14.952Z,98137.19
2023-05-12T04:50:17.752Z,98128.50
2023-05-12T04:51:20.420Z,98131.94
2023-05-12T04:52:24.660Z,98126.19
2023-05-12T04:53:28.380Z,98130.66
2023-05-12T04:54:31.390Z,98126.75
2023-05-12T04:55:34.116Z,98133.69
2023-05-12T04:56:37.445Z,98137.72
2023-05-12T04:57:41.686Z,98128.78
2023-05-12T04:58:44.470Z,98136.72
2023-05-12T04:59:47.105Z,98142.81
2023-05-12T05:00:49.826Z,98132.25
2023-05-12T05:01:52.663Z,98135.72
2023-05-12T05:02:55.627Z,98138.03
2023-05-12T05:03:58.518Z,98140.75
2023-05-12T05:05:01.277Z,98136.97
2023-05-12T05:06:04.124Z,98136.88
2023-05-12T05:07:07.090Z,98142.94
2023-05-12T05:08:09.945Z,98142.06
2023-05-12T05:09:12.808Z,98149.59
2023-05-12T05:10:15.706Z,98139.44
2023-05-12T05:11:18.444Z,98138.25
2023-05-12T05:12:21.147Z,98140.59
2023-05-12T05:13:23.867Z,98139.00
2023-05-12T05:14:26.972Z,98131.47
2023-05-12T05:15:29.785Z,98142.19
2023-05-12T05:16:32.554Z,98139.56
2023-05-12T05:17:35.397Z,98136.41
2023-05-12T05:18:38.213Z,98138.12
2023-05-12T05:19:54.741Z,98138.09
2023-05-12T05:21:01.193Z,98136.06
2023-05-12T05:22:05.192Z,98140.25
2023-05-12T05:23:07.865Z,98141.69
2023-05-12T05:24:10.605Z,98141.84
2023-05-12T05:25:14.326Z,98146.03
2023-05-12T05:26:17.058Z,98134.31
2023-05-12T05:27:19.905Z,98146.63
2023-05-12T05:28:22.868Z,98151.81
2023-05-12T05:29:26.813Z,98153.53
2023-05-12T05:30:29.762Z,98150.22
2023-05-12T05:31:32.554Z,98151.66
2023-05-12T05:32:37.032Z,98149.22
2023-05-12T05:33:40.002Z,98156.75
2023-05-12T05:34:42.836Z,98151.53
2023-05-12T05:35:45.783Z,98147.47
2023-05-12T05:36:48.553Z,98148.34
2023-05-12T05:37:54.036Z,98147.59
2023-05-12T05:38:56.928Z,98157.16
2023-05-12T05:39:59.768Z,98153.28
2023-05-12T05:41:02.645Z,98143.19
2023-05-12T05:42:05.530Z,98151.38
2023-05-12T05:43:08.131Z,98153.00
2023-05-12T05:44:10.835Z,98147.25
2023-05-12T05:45:13.534Z,98162.44
2023-05-12T05:46:16.226Z,98152.00
2023-05-12T05:47:18.969Z,98160.81
2023-05-12T05:48:22.016Z,98152.56
2023-05-12T05:49:24.754Z,98147.06
2023-05-12T05:50:27.633Z,98150.22
2023-05-12T05:51:30.311Z,98154.72
2023-05-12T05:52:33.188Z,98154.28
2023-05-12T05:53:35.883Z,98158.03
2023-05-12T05:54:38.689Z,98161.78
2023-05-12T05:55:41.314Z,98153.97
2023-05-12T05:56:44.044Z,98150.34
2023-05-12T05:57:46.775Z,98152.56
2023-05-12T05:58:49.470Z,98156.75
2023-05-12T05:59:52.149Z,98156.63
2023-05-12T06:00:54.837Z,98157.75
2023-05-12T06:01:58.227Z,98156.87
2023-05-12T06:03:01.483Z,98164.97
2023-05-12T06:04:04.801Z,98160.59
2023-05-12T06:05:08.275Z,98165.66
2023-05-12T06:06:11.135Z,98168.22
2023-05-12T06:07:13.973Z,98164.75
2023-05-12T06:08:16.953Z,98170.84
2023-05-12T06:09:19.722Z,98166.06
2023-05-12T06:10:22.772Z,98165.50
2023-05-12T06:11:25.800Z,98168.56
2023-05-12T06:12:28.890Z,98160.78
2023-05-12T06:13:32.009Z,98175.22
2023-05-12T06:14:34.912Z,98171.56
2023-05-12T06:15:37.664Z,98168.97
2023-05-12T06:16:40.567Z,98172.03
2023-05-12T06:17:43.475Z,98177.22
2023-05-12T06:18:46.386Z,98172.16
2023-05-12T06:19:50.139Z,98172.00
2023-05-12T06:20:52.972Z,98167.81
2023-05-12T06:21:55.683Z,98168.09
2023-05-12T06:22:58.513Z,98181.56
2023-05-12T06:24:01.329Z,98173.72
2023-05-12T06:25:04.632Z,98170.97
2023-05-12T06:26:08.095Z,98175.34
2023-05-12T06:27:11.016Z,98177.66
2023-05-12T06:28:13.712Z,98168.66
2023-05-12T06:29:16.750Z,98176.47
2023-05-12T06:30:19.485Z,98165.19
2023-05-12T06:31:22.190Z,98172.28
2023-05-12T06:32:24.990Z,98174.63
2023-05-12T06:33:27.784Z,98170.44
2023-05-12T06:34:30.505Z,98178.09
2023-05-12T06:35:33.602Z,98173.19
2023-05-12T06:36:36.475Z,98180.34
2023-05-12T06:37:39.318Z,98164.72
2023-05-12T06:38:42.122Z,98163.59
2023-05-12T06:39:44.949Z,98174.91
2023-05-12T06:40:48.126Z,98173.44
2023-05-12T06:41:50.815Z,98172.16
2023-05-12T06:42:53.568Z,98170.38
2023-05-12T06:43:56.634Z,98172.69
2023-05-12T06:45:01.139Z,98169.22
2023-05-12T06:46:04.109Z,98169.34
2023-05-12T06:47:07.072Z,98175.44
2023-05-12T06:48:10.158Z,98175.72
2023-05-12T06:49:12.990Z,98169.59
2023-05-12T06:50:17.351Z,98173.34
2023-05-12T06:51:20.124Z,98171.16
2023-05-12T06:52:24.311Z,98165.47
2023-05-12T06:53:27.519Z,98176.53
2023-05-12T06:54:30.199Z,98174.09
2023-05-12T06:55:32.869Z,98172.97
2023-05-12T06:56:35.629Z,98171.53
2023-05-12T06:57:38.619Z,98168.78
2023-05-12T06:58:41.363Z,98171.66
2023-05-12T06:59:44.131Z,98178.00
2023-05-12T07:00:46.896Z,98168.72
2023-05-12T07:01:49.612Z,98178.09
2023-05-12T07:02:52.678Z,98177.38
2023-05-12T07:03:55.831Z,98171.34
2023-05-12T07:04:58.544Z,98170.16
2023-05-12T07:06:01.312Z,98172.34
2023-05-12T07:07:04.282Z,98172.47
2023-05-12T07:08:07.195Z,98170.13
2023-05-12T07:09:10.133Z,98174.31
2023-05-12T07:10:12.876Z,98171.81
2023-05-12T07:11:20.346Z,98172.09
2023-05-12T07:12:23.037Z,98177.72
2023-05-12T07:13:25.773Z,98171.56
2023-05-12T07:14:28.461Z,98171.56
2023-05-12T07:15:32.778Z,98178.72
2023-05-12T07:16:36.062Z,98170.34
2023-05-12T07:17:38.873Z,98174.72
2023-05-12T07:18:42.461Z,98167.66
2023-05-12T07:19:45.351Z,98163.00
2023-05-12T07:20:48.122Z,98171.56
2023-05-12T07:21:51.013Z,98166.75
2023-05-12T07:22:54.949Z,98169.09
2023-05-12T07:23:57.809Z,98174.28
2023-05-12T07:25:00.570Z,98171.97
2023-05-12T07:26:04.984Z,98174.16
2023-05-12T07:27:08.411Z,98170.84
2023-05-12T07:28:11.650Z,98176.75
2023-05-12T07:29:14.586Z,98182.41
2023-05-12T07:30:17.649Z,98172.28
2023-05-12T07:31:20.550Z,98172.56
2023-05-12T07:32:23.356Z,98181.88
2023-05-12T07:33:26.373Z,98172.28
2023-05-12T07:34:29.032Z,98179.44
2023-05-12T07:35:32.060Z,98170.34
2023-05-12T07:36:34.797Z,98170.50
2023-05-12T07:37:38.401Z,98175.12
2023-05-12T07:38:41.367Z,98170.19
2023-05-12T07:39:44.035Z,98167.66
2023-05-12T07:40:46.896Z,98178.28
2023-05-12T07:41:50.908Z,98172.44
2023-05-12T07:42:53.862Z,98170.41
2023-05-12T07:43:56.686Z,98170.84
2023-05-12T07:44:59.869Z,98168.38
2023-05-12T07:46:02.828Z,98168.06
2023-05-12T07:47:05.903Z,98174.28
2023-05-12T07:48:08.827Z,98175.19
2023-05-12T07:49:11.514Z,98167.94
2023-05-12T07:50:14.193Z,98179.66
2023-05-12T07:51:17.031Z,98181.81
2023-05-12T07:52:19.912Z,98167.19
2023-05-12T07:53:22.625Z,98178.19
2023-05-12T07:54:25.350Z,98182.41
2023-05-12T07:55:28.141Z,98181.53
2023-05-12T07:56:31.010Z,98172.53
2023-05-12T07:57:33.700Z,98180.06
2023-05-12T07:58:36.463Z,98171.09
2023-05-12T07:59:39.175Z,98186.37
2023-05-12T08:00:42.335Z,98180.91
2023-05-12T08:01:45.131Z,98185.25
2023-05-12T08:02:48.164Z,98173.63
2023-05-12T08:03:51.687Z,98185.03
2023-05-12T08:04:56.318Z,98181.94
2023-05-12T08:05:59.082Z,98181.34
2023-05-12T08:07:01.785Z,98176.16
2023-05-12T08:08:04.633Z,98187.16
2023-05-12T08:09:07.385Z,98189.91
2023-05-12T08:10:12.129Z,98190.31
2023-05-12T08:11:15.003Z,98187.09
2023-05-12T08:12:17.781Z,98187.81
2023-05-12T08:13:20.528Z,98186.13
2023-05-12T08:14:23.188Z,98187.50
2023-05-12T08:15:25.871Z,98191.19
2023-05-12T08:16:28.635Z,98192.38
2023-05-12T08:17:31.486Z,98184.81
2023-05-12T08:18:34.384Z,98194.56
2023-05-12T08:19:37.052Z,98188.81
2023-05-12T08:20:39.695Z,98188.34
2023-05-12T08:21:42.492Z,98200.66
2023-05-12T08:22:46.930Z,98200.81
2023-05-12T08:23:49.747Z,98198.06
2023-05-12T08:24:53.039Z,98197.47
2023-05-12T08:25:55.919Z,98199.88
2023-05-12T08:26:58.668Z,98191.59
2023-05-12T08:28:01.413Z,98188.13
2023-05-12T08:29:04.949Z,98196.03
2023-05-12T08:30:08.576Z,98191.84
2023-05-12T08:31:11.981Z,98199.97
2023-05-12T08:32:15.334Z,98199.50
2023-05-12T08:33:17.984Z,98190.41
2023-05-12T08:34:20.710Z,98198.53
2023-05-12T08:35:26.086Z,98197.47
2023-05-12T08:36:28.782Z,98197.72
2023-05-12T08:37:34.253Z,98194.47
2023-05-12T08:38:37.747Z,98199.50
2023-05-12T08:39:40.808Z,98198.44
2023-05-12T08:41:11.247Z,98205.03
2023-05-12T08:42:33.267Z,98197.47
2023-05-12T08:43:50.030Z,98202.87
2023-05-12T08:44:54.360Z,98196.84
2023-05-12T08:46:00.368Z,98206.44
2023-05-12T08:47:05.573Z,98209.19
2023-05-12T08:48:11.064Z,98208.59
2023-05-12T08:49:17.900Z,98201.53
2023-05-12T08:50:22.976Z,98202.03
2023-05-12T08:51:27.448Z,98220.84
2023-05-12T08:52:34.370Z,98209.94
2023-05-12T08:53:39.011Z,98205.50
2023-05-12T08:54:52.194Z,98207.78
2023-05-12T08:57:10.415Z,98206.34
2023-05-12T08:58:14.978Z,98214.75
2023-05-12T08:59:18.165Z,98216.03
2023-05-12T09:00:22.143Z,98207.75
2023-05-12T09:01:29.165Z,98205.34
2023-05-12T09:02:44.643Z,98215.50
2023-05-12T09:03:54.665Z,98209.06
2023-05-12T09:04:57.473Z,98216.72
2023-05-12T09:06:01.036Z,98215.75
2023-05-12T09:07:05.351Z,98221.84
2023-05-12T09:08:10.013Z,98212.00
2023-05-12T09:09:14.389Z,98214.62
2023-05-12T09:10:33.581Z,98216.19
2023-05-12T09:11:37.552Z,98215.97
2023-05-12T09:12:41.338Z,98216.34
2023-05-12T09:14:00.527Z,98220.06
2023-05-12T09:15:08.521Z,98218.72
2023-05-12T09:16:12.983Z,98226.13
2023-05-12T09:17:15.828Z,98222.97
2023-05-12T09:18:18.556Z,98212.91
2023-05-12T09:19:21.849Z,98220.91
2023-05-12T09:20:31.756Z,98220.19
2023-05-12T09:21:35.085Z,98216.00
2023-05-12T09:22:37.909Z,98223.78
2023-05-12T09:23:40.762Z,98220.97
2023-05-12T09:24:44.430Z,98229.31
2023-05-12T09:25:47.544Z,98229.16
2023-05-12T09:26:52.420Z,98229.88
2023-05-12T09:27:57.356Z,98228.97
2023-05-12T09:29:08.591Z,98238.16
2023-05-12T09:30:12.159Z,98224.47
2023-05-12T09:31:26.296Z,98235.25
2023-05-12T09:32:33.811Z,98236.59
2023-05-12T09:33:37.000Z,98236.75
2023-05-12T09:34:41.631Z,98231.50
2023-05-12T09:35:46.071Z,98233.16
2023-05-12T09:36:59.571Z,98238.81
2023-05-12T09:38:10.099Z,98240.28
2023-05-12T09:39:13.226Z,98232.34
2023-05-12T09:40:16.525Z,98237.44
2023-05-12T09:41:25.870Z,98244.25
2023-05-12T09:42:30.810Z,98246.09
2023-05-12T09:43:36.427Z,98244.94
2023-05-12T09:44:39.953Z,98244.94
2023-05-12T09:45:44.381Z,98251.06
2023-05-12T09:46:48.024Z,98249.63
2023-05-12T09:47:50.824Z,98249.50
2023-05-12T09:48:57.524Z,98252.66
2023-05-12T09:50:03.107Z,98242.22
2023-05-12T09:51:10.022Z,98248.16
2023-05-12T09:52:12.715Z,98244.56
2023-05-12T09:53:18.001Z,98251.12
2023-05-12T09:54:32.512Z,98244.06
2023-05-12T09:55:35.191Z,98249.78
2023-05-12T09:56:38.520Z,98252.84
2023-05-12T09:57:44.608Z,98256.50
2023-05-12T09:58:49.283Z,98258.06
2023-05-12T09:59:52.669Z,98260.88
2023-05-12T10:02:06.905Z,98260.16
2023-05-12T10:03:14.491Z,98255.22
2023-05-12T10:04:17.452Z,98260.41
2023-05-12T10:05:22.719Z,98256.22
2023-05-12T10:06:34.192Z,98257.25
2023-05-12T10:07:37.508Z,98255.63
2023-05-12T10:09:00.584Z,98258.97
2023-05-12T10:10:05.738Z,98253.06
2023-05-12T10:11:09.718Z,98257.09
2023-05-12T10:12:13.673Z,98250.53
2023-05-12T10:13:17.021Z,98258.69
2023-05-12T10:14:19.761Z,98261.88
2023-05-12T10:15:25.198Z,98259.09
2023-05-12T10:16:29.097Z,98260.81
2023-05-12T10:17:32.525Z,98264.47
2023-05-12T10:18:36.373Z,98253.75
2023-05-12T10:19:41.893Z,98255.06
2023-05-12T10:20:46.312Z,98266.38
2023-05-12T10:21:50.043Z,98247.25
2023-05-12T10:22:54.865Z,98252.44
2023-05-12T10:23:58.270Z,98254.75
2023-05-12T10:25:05.395Z,98262.41
2023-05-12T10:26:10.411Z,98264.84
2023-05-12T10:27:16.081Z,98254.16
2023-05-12T10:28:20.229Z,98249.97
2023-05-12T10:29:30.288Z,98257.50
2023-05-12T10:30:34.613Z,98251.41
2023-05-12T10:31:38.795Z,98251.12
2023-05-12T10:32:41.660Z,98254.19
2023-05-12T10:33:44.444Z,98252.72
2023-05-12T10:34:47.284Z,98249.81
2023-05-12T10:35:52.954Z,98248.97
2023-05-12T10:36:55.699Z,98257.81
2023-05-12T10:38:04.513Z,98260.28
2023-05-12T10:39:07.233Z,98253.59
2023-05-12T10:40:11.413Z,98254.22
2023-05-12T10:41:14.269Z,98261.47
2023-05-12T10:42:26.221Z,98254.50
2023-05-12T10:43:38.061Z,98253.06
2023-05-12T10:44:54.779Z,98257.84
2023-05-12T10:46:16.782Z,98251.66
2023-05-12T10:47:27.200Z,98262.94
2023-05-12T10:48:29.971Z,98257.00
2023-05-12T10:49:35.057Z,98256.72
2023-05-12T10:50:37.740Z,98259.16
2023-05-12T10:51:43.415Z,98264.25
2023-05-12T10:52:56.655Z,98254.13
2023-05-12T10:54:02.331Z,98256.00
2023-05-12T10:55:05.594Z,98253.97
2023-05-12T10:56:09.166Z,98257.28
2023-05-12T10:57:20.774Z,98254.09
2023-05-12T10:58:23.898Z,98251.94
2023-05-12T10:59:27.716Z,98259.47
2023-05-12T11:00:31.404Z,98253.97
2023-05-12T11:01:35.647Z,98260.03
2023-05-12T11:02:51.444Z,98263.94
2023-05-12T11:04:09.895Z,98259.88
2023-05-12T11:05:13.481Z,98265.38
2023-05-12T11:06:19.976Z,98265.53
2023-05-12T11:07:27.237Z,98264.22
2023-05-12T11:08:32.414Z,98271.03
2023-05-12T11:09:42.731Z,98266.69
2023-05-12T11:10:53.991Z,98273.03
2023-05-12T11:11:56.862Z,98266.38
2023-05-12T11:12:59.671Z,98267.94
2023-05-12T11:14:02.675Z,98273.31
2023-05-12T11:15:07.031Z,98277.69
2023-05-12T11:16:13.702Z,98277.97
2023-05-12T11:17:16.777Z,98276.25
2023-05-12T11:18:23.575Z,98267.59
2023-05-12T11:19:26.525Z,98269.44
2023-05-12T11:20:30.856Z,98273.06
2023-05-12T11:21:34.015Z,98271.34
2023-05-12T11:22:37.505Z,98269.75
2023-05-12T11:23:40.217Z,98271.22
2023-05-12T11:24:42.930Z,98272.66
2023-05-12T11:25:45.782Z,98273.06
2023-05-12T11:26:54.548Z,98277.84
2023-05-12T11:27:59.816Z,98271.78
2023-05-12T11:29:04.123Z,98280.72
2023-05-12T11:30:07.672Z,98278.69
2023-05-12T11:31:20.247Z,98280.72
2023-05-12T11:32:22.990Z,98277.97
2023-05-12T11:33:25.788Z,98275.66
2023-05-12T11:34:28.569Z,98278.41
2023-05-12T11:35:32.666Z,98266.69
2023-05-12T11:36:39.467Z,98269.75
2023-05-12T11:37:43.865Z,98269.16
2023-05-12T11:38:51.538Z,98268.44
2023-05-12T11:39:54.208Z,98265.56
2023-05-12T11:40:56.932Z,98270.16
2023-05-12T11:42:13.277Z,98268.41
2023-05-12T11:43:21.024Z,98262.50
2023-05-12T11:44:25.083Z,98254.69
2023-05-12T11:45:29.483Z,98257.44
2023-05-12T11:46:32.266Z,98264.25
2023-05-12T11:47:35.077Z,98259.94
2023-05-12T11:48:37.747Z,98260.34
2023-05-12T11:49:57.673Z,98268.47
2023-05-12T11:51:01.215Z,98258.75
2023-05-12T11:52:05.098Z,98261.78
2023-05-12T11:53:15.085Z,98265.69
2023-05-12T11:54:17.995Z,98263.37
2023-05-12T11:55:23.602Z,98270.19
2023-05-12T11:56:26.893Z,98265.25
2023-05-12T11:57:32.659Z,98264.25
2023-05-12T11:58:35.736Z,98263.81
2023-05-12T11:59:40.880Z,98263.94
2023-05-12T12:00:43.905Z,98264.38
2023-05-12T12:01:46.990Z,98263.94
2023-05-12T12:02:49.792Z,98267.56
2023-05-12T12:03:54.792Z,98270.16
2023-05-12T12:04:57.922Z,98276.13
2023-05-12T12:06:02.722Z,98272.91
2023-05-12T12:07:06.285Z,98261.91
2023-05-12T12:08:15.920Z,98261.31
2023-05-12T12:09:18.682Z,98266.09
2023-05-12T12:10:22.014Z,98270.16
2023-05-12T12:11:28.461Z,98267.53
2023-05-12T12:12:31.152Z,98270.44
2023-05-12T12:13:33.846Z,98265.94
2023-05-12T12:14:38.285Z,98257.69
2023-05-12T12:15:41.031Z,98262.91
2023-05-12T12:16:43.706Z,98258.84
2023-05-12T12:17:46.460Z,98262.31
2023-05-12T12:18:49.239Z,98271.41
2023-05-12T12:19:52.062Z,98270.09
2023-05-12T12:20:54.743Z,98264.44
2023-05-12T12:21:58.174Z,98271.97
2023-05-12T12:23:00.927Z,98260.34
2023-05-12T12:24:03.700Z,98272.38
2023-05-12T12:25:07.025Z,98267.19
2023-05-12T12:26:09.828Z,98263.56
2023-05-12T12:27:12.576Z,98256.72
2023-05-12T12:28:15.210Z,98262.53
2023-05-12T12:29:18.537Z,98265.28
2023-05-12T12:30:21.527Z,98274.12
2023-05-12T12:31:24.257Z,98257.47
2023-05-12T12:32:27.424Z,98272.38
2023-05-12T12:33:30.232Z,98271.09
2023-05-12T12:34:33.618Z,98269.94